createdAt,value
2018-12-27T00:00:20.387Z,20.27
2018-12-27T00:02:54.852Z,18.73
2018-12-27T00:05:20.433Z,20.40
2018-12-27T00:07:49.516Z,19.57
2018-12-27T00:10:18.525Z,19.50
2018-12-27T00:12:47.310Z,20.80
2018-12-27T00:15:16.180Z,20.03
2018-12-27T00:17:44.961Z,19.27
2018-12-27T00:20:14.177Z,19.70
2018-12-27T00:22:43.369Z,20.97
2018-12-27T00:25:12.148Z,20.57
2018-12-27T00:27:41.041Z,19.47
2018-12-27T00:30:09.990Z,20.63
2018-12-27T00:32:38.922Z,21.77
2018-12-27T00:35:07.987Z,21.40
2018-12-27T00:37:36.935Z,18.67
2018-12-27T00:40:05.882Z,20.27
2018-12-27T00:42:35.074Z,20.53
2018-12-27T00:45:04.353Z,18.63
2018-12-27T00:47:33.309Z,18.77
2018-12-27T00:50:02.258Z,18.97
2018-12-27T00:52:31.472Z,18.30
2018-12-27T00:55:00.570Z,18.60
2018-12-27T00:57:29.518Z,19.20
2018-12-27T00:59:58.464Z,19.23
2018-12-27T01:02:28.017Z,18.57
2018-12-27T01:04:57.252Z,19.13
2018-12-27T01:07:26.185Z,19.43
2018-12-27T01:09:55.785Z,20.20
2018-12-27T01:12:24.736Z,18.33
2018-12-27T01:14:54.013Z,18.50
2018-12-27T01:17:23.212Z,18.97
2018-12-27T01:19:52.186Z,19.33
2018-12-27T01:22:21.116Z,19.83
2018-12-27T01:24:50.077Z,19.13
2018-12-27T01:27:19.548Z,19.20
2018-12-27T01:29:48.481Z,18.77
2018-12-27T01:32:17.769Z,19.83
2018-12-27T01:34:47.124Z,18.77
2018-12-27T01:37:16.574Z,20.87
2018-12-27T01:39:45.518Z,17.97
2018-12-27T01:42:14.721Z,19.70
2018-12-27T01:44:43.700Z,19.83
2018-12-27T01:47:12.962Z,19.27
2018-12-27T01:49:41.889Z,18.90
2018-12-27T01:52:11.229Z,17.83
2018-12-27T01:54:40.453Z,16.03
2018-12-27T01:57:09.389Z,16.37
2018-12-27T01:59:38.341Z,16.80
2018-12-27T02:02:07.925Z,16.70
2018-12-27T02:04:36.872Z,15.60
2018-12-27T02:07:06.170Z,18.27
2018-12-27T02:09:35.401Z,18.83
2018-12-27T02:12:04.692Z,19.63
2018-12-27T02:14:33.700Z,19.80
2018-12-27T02:17:02.682Z,20.07
2018-12-27T02:19:31.640Z,20.37
2018-12-27T02:22:00.579Z,19.40
2018-12-27T02:24:29.512Z,20.43
2018-12-27T02:26:58.458Z,20.57
2018-12-27T02:29:27.709Z,21.03
2018-12-27T02:31:56.645Z,21.63
2018-12-27T02:34:25.855Z,20.47
2018-12-27T02:36:54.793Z,19.67
2018-12-27T02:39:23.728Z,18.87
2018-12-27T02:41:52.781Z,19.67
2018-12-27T02:44:21.726Z,19.33
2018-12-27T02:46:51.276Z,19.37
2018-12-27T02:49:20.228Z,19.10
2018-12-27T02:52:04.181Z,19.60
2018-12-27T02:54:33.432Z,18.40
2018-12-27T02:57:02.389Z,17.47
2018-12-27T02:59:31.420Z,18.17
2018-12-27T03:02:00.389Z,19.03
2018-12-27T03:04:29.394Z,18.93
2018-12-27T03:06:58.389Z,19.97
2018-12-27T03:09:27.321Z,20.27
2018-12-27T03:11:56.980Z,20.60
2018-12-27T03:14:25.934Z,19.73
2018-12-27T03:16:54.871Z,20.30
2018-12-27T03:19:23.831Z,21.90
2018-12-27T03:21:53.783Z,21.70
2018-12-27T03:24:22.704Z,20.13
2018-12-27T03:26:52.041Z,21.10
2018-12-27T03:29:21.332Z,19.53
2018-12-27T03:31:50.594Z,20.93
2018-12-27T03:34:19.557Z,22.00
2018-12-27T03:36:48.511Z,21.50
2018-12-27T03:39:17.461Z,21.40
2018-12-27T03:41:46.654Z,21.33
2018-12-27T03:44:15.589Z,21.43
2018-12-27T03:46:44.594Z,18.70
2018-12-27T03:49:14.285Z,19.23
2018-12-27T03:51:43.581Z,17.90
2018-12-27T03:54:12.529Z,18.10
2018-12-27T03:56:41.482Z,18.73
2018-12-27T03:59:10.472Z,22.23
2018-12-27T04:01:39.421Z,20.47
2018-12-27T04:04:09.041Z,18.73
2018-12-27T04:06:37.986Z,18.47
2018-12-27T04:09:07.014Z,18.20
2018-12-27T04:11:36.291Z,18.77
2018-12-27T04:14:05.336Z,18.47
2018-12-27T04:16:34.205Z,18.27
2018-12-27T04:19:03.580Z,19.30
2018-12-27T04:21:32.348Z,19.47
2018-12-27T04:24:01.456Z,17.80
2018-12-27T04:26:30.696Z,18.27
2018-12-27T04:28:59.469Z,19.00
2018-12-27T04:31:28.606Z,18.80
2018-12-27T04:33:57.856Z,19.17
2018-12-27T04:36:27.651Z,17.47
2018-12-27T04:38:56.692Z,17.23
2018-12-27T04:41:26.446Z,19.33
2018-12-27T04:43:55.250Z,18.87
2018-12-27T04:46:24.630Z,18.77
2018-12-27T04:48:53.432Z,18.50
2018-12-27T04:51:22.211Z,18.63
2018-12-27T04:53:51.281Z,17.33
2018-12-27T04:56:20.421Z,18.60
2018-12-27T04:58:49.528Z,19.77
2018-12-27T05:01:18.382Z,18.90
2018-12-27T05:03:47.480Z,18.00
2018-12-27T05:06:16.293Z,18.73
2018-12-27T05:08:45.348Z,19.27
2018-12-27T05:11:14.132Z,18.67
2018-12-27T05:13:43.269Z,18.03
2018-12-27T05:16:12.053Z,19.17
2018-12-27T05:18:41.282Z,19.07
2018-12-27T05:21:10.145Z,19.23
2018-12-27T05:23:38.926Z,17.57
2018-12-27T05:26:07.983Z,17.47
2018-12-27T05:28:37.189Z,17.90
2018-12-27T05:31:06.276Z,19.20
2018-12-27T05:33:35.053Z,19.17
2018-12-27T05:36:04.393Z,19.20
2018-12-27T05:38:33.169Z,18.03
2018-12-27T05:41:02.801Z,17.50
2018-12-27T05:43:33.503Z,17.97
2018-12-27T05:46:02.338Z,18.77
2018-12-27T05:48:31.305Z,18.17
2018-12-27T05:51:02.415Z,18.37
2018-12-27T05:53:31.193Z,18.33
2018-12-27T05:55:59.982Z,18.17
2018-12-27T05:58:29.180Z,17.80
2018-12-27T06:00:58.225Z,17.37
2018-12-27T06:03:27.777Z,18.43
2018-12-27T06:05:56.871Z,18.10
2018-12-27T06:08:25.930Z,17.10
2018-12-27T06:10:54.728Z,16.90
2018-12-27T06:13:24.152Z,17.70
2018-12-27T06:15:52.934Z,17.03
2018-12-27T06:18:21.745Z,18.80
2018-12-27T06:20:50.868Z,17.87
2018-12-27T06:23:19.663Z,17.50
2018-12-27T06:25:48.437Z,18.73
2018-12-27T06:28:17.273Z,16.90
2018-12-27T06:30:46.248Z,16.37
2018-12-27T06:33:15.317Z,16.30
2018-12-27T06:35:44.106Z,16.40
2018-12-27T06:38:12.914Z,15.87
2018-12-27T06:40:42.011Z,16.87
2018-12-27T06:43:11.129Z,15.63
2018-12-27T06:45:41.041Z,15.07
2018-12-27T06:48:09.817Z,14.80
2018-12-27T06:50:38.913Z,16.73
2018-12-27T06:53:07.996Z,16.20
2018-12-27T06:55:36.769Z,15.53
2018-12-27T06:58:05.857Z,15.03
2018-12-27T07:00:35.293Z,15.07
2018-12-27T07:03:04.156Z,15.17
2018-12-27T07:05:32.935Z,15.27
2018-12-27T07:08:01.738Z,16.43
2018-12-27T07:10:30.524Z,15.03
2018-12-27T07:12:59.296Z,15.10
2018-12-27T07:15:28.189Z,16.33
2018-12-27T07:17:57.289Z,15.50
2018-12-27T07:20:26.072Z,14.83
2018-12-27T07:22:55.136Z,15.80
2018-12-27T07:25:23.927Z,15.07
2018-12-27T07:27:52.724Z,15.27
2018-12-27T07:30:21.542Z,15.97
2018-12-27T07:32:50.324Z,15.60
2018-12-27T07:35:19.180Z,15.40
2018-12-27T07:37:47.974Z,14.87
2018-12-27T07:40:16.761Z,13.40
2018-12-27T07:42:45.875Z,13.27
2018-12-27T07:45:15.100Z,13.07
